createdAt,value
2022-12-31T00:01:05.598Z,63.75
2022-12-31T00:03:34.009Z,63.99
2022-12-31T00:06:02.697Z,64.02
2022-12-31T00:08:30.489Z,64.20
2022-12-31T00:10:58.412Z,64.36
2022-12-31T00:13:26.152Z,64.03
2022-12-31T00:15:53.919Z,64.17
2022-12-31T00:18:21.655Z,64.09
2022-12-31T00:20:49.355Z,64.05
2022-12-31T00:23:17.101Z,64.05
2022-12-31T00:25:44.885Z,63.86
2022-12-31T00:28:12.680Z,63.88
2022-12-31T00:30:40.645Z,63.99
2022-12-31T00:33:08.356Z,63.96
2022-12-31T00:35:36.565Z,64.01
2022-12-31T00:38:04.444Z,63.91
2022-12-31T00:40:32.169Z,63.71
2022-12-31T00:42:59.926Z,63.89
2022-12-31T00:45:27.680Z,63.80
2022-12-31T00:47:55.587Z,63.83
2022-12-31T00:50:23.437Z,63.67
2022-12-31T00:52:51.206Z,63.76
2022-12-31T00:55:19.729Z,63.66
2022-12-31T00:57:47.470Z,63.67
2022-12-31T01:00:16.098Z,63.60
2022-12-31T01:02:44.045Z,63.74
2022-12-31T01:05:11.985Z,63.76
2022-12-31T01:07:39.753Z,63.83
2022-12-31T01:10:08.201Z,63.82
2022-12-31T01:12:36.058Z,64.02
2022-12-31T01:15:04.267Z,64.20
2022-12-31T01:17:32.055Z,64.28
2022-12-31T01:19:59.835Z,64.36
2022-12-31T01:22:27.626Z,64.40
2022-12-31T01:24:55.370Z,64.42
2022-12-31T01:27:23.068Z,64.55
2022-12-31T01:29:50.822Z,64.43
2022-12-31T01:32:18.514Z,64.41
2022-12-31T01:34:47.430Z,64.37
2022-12-31T01:37:15.176Z,64.35
2022-12-31T01:39:42.952Z,64.30
2022-12-31T01:42:11.886Z,64.36
2022-12-31T01:44:39.675Z,64.33
2022-12-31T01:47:15.020Z,64.29
2022-12-31T01:49:45.383Z,64.24
2022-12-31T01:52:42.860Z,64.19
2022-12-31T01:55:21.762Z,64.11
2022-12-31T01:57:52.099Z,63.80
2022-12-31T02:00:20.037Z,63.83
2022-12-31T02:02:47.919Z,63.69
2022-12-31T02:05:30.966Z,63.79
2022-12-31T02:07:58.992Z,63.68
2022-12-31T02:10:26.775Z,63.54
2022-12-31T02:12:54.761Z,63.56
2022-12-31T02:15:49.100Z,63.51
2022-12-31T02:18:38.524Z,63.56
2022-12-31T02:21:35.101Z,63.51
2022-12-31T02:24:22.248Z,63.56
2022-12-31T02:26:54.173Z,63.47
2022-12-31T02:29:48.498Z,63.47
2022-12-31T02:32:22.306Z,63.42
2022-12-31T02:35:01.096Z,63.42
2022-12-31T02:37:30.715Z,63.40
2022-12-31T02:39:59.123Z,63.26
2022-12-31T02:42:26.944Z,63.38
2022-12-31T02:44:54.733Z,63.43
2022-12-31T02:48:00.521Z,63.43
2022-12-31T02:50:57.022Z,63.43
2022-12-31T02:53:57.143Z,63.37
2022-12-31T02:56:35.316Z,63.58
2022-12-31T02:59:25.735Z,63.40
2022-12-31T03:02:14.283Z,63.62
2022-12-31T03:04:49.868Z,63.67
2022-12-31T03:07:23.965Z,63.67
2022-12-31T03:09:52.195Z,63.67
2022-12-31T03:12:48.020Z,63.50
2022-12-31T03:15:22.400Z,63.65
2022-12-31T03:18:08.320Z,63.49
2022-12-31T03:21:07.360Z,63.47
2022-12-31T03:23:40.684Z,63.48
2022-12-31T03:26:12.345Z,63.52
2022-12-31T03:28:41.980Z,63.46
2022-12-31T03:31:09.848Z,63.61
2022-12-31T03:33:39.857Z,63.67
2022-12-31T03:36:11.284Z,63.64
2022-12-31T03:38:39.761Z,63.77
2022-12-31T03:41:10.820Z,63.86
2022-12-31T03:43:38.640Z,63.99
2022-12-31T03:46:06.522Z,64.08
2022-12-31T03:48:34.424Z,64.04
2022-12-31T03:51:02.172Z,64.29
2022-12-31T03:53:30.306Z,64.16
2022-12-31T03:55:58.129Z,64.42
2022-12-31T03:58:25.972Z,64.41
2022-12-31T04:00:53.821Z,64.23
2022-12-31T04:03:21.866Z,64.33
2022-12-31T04:05:56.077Z,64.42
2022-12-31T04:08:24.778Z,64.43
2022-12-31T04:10:52.669Z,64.43
2022-12-31T04:13:20.454Z,64.51
2022-12-31T04:15:52.126Z,64.51
2022-12-31T04:18:19.918Z,64.45
2022-12-31T04:20:47.696Z,64.52
2022-12-31T04:23:15.536Z,64.48
2022-12-31T04:25:43.272Z,64.59
2022-12-31T04:28:12.192Z,64.65
2022-12-31T04:30:40.219Z,64.51
2022-12-31T04:33:08.045Z,64.63
2022-12-31T04:35:35.819Z,64.58
2022-12-31T04:38:04.132Z,64.59
2022-12-31T04:40:32.244Z,64.57
2022-12-31T04:42:59.993Z,64.55
2022-12-31T04:45:27.722Z,64.57
2022-12-31T04:47:55.436Z,64.91
2022-12-31T04:50:23.186Z,65.08
2022-12-31T04:52:50.925Z,65.26
2022-12-31T04:55:18.692Z,65.40
2022-12-31T04:57:46.413Z,65.64
2022-12-31T05:00:14.696Z,66.10
2022-12-31T05:02:42.606Z,66.04
2022-12-31T05:05:10.526Z,66.14
2022-12-31T05:07:38.358Z,66.19
2022-12-31T05:10:06.691Z,66.31
2022-12-31T05:12:34.455Z,66.46
2022-12-31T05:15:02.274Z,66.48
2022-12-31T05:17:30.463Z,66.51
2022-12-31T05:19:58.184Z,66.49
2022-12-31T05:22:28.959Z,66.52
2022-12-31T05:24:57.956Z,66.59
2022-12-31T05:27:26.091Z,66.55
2022-12-31T05:29:53.839Z,66.50
2022-12-31T05:32:21.616Z,66.67
2022-12-31T05:34:49.348Z,66.44
2022-12-31T05:37:17.100Z,66.83
2022-12-31T05:39:44.819Z,66.67
2022-12-31T05:42:12.543Z,66.94
2022-12-31T05:44:40.346Z,66.97
2022-12-31T05:47:08.154Z,67.03
2022-12-31T05:49:35.977Z,66.98
2022-12-31T05:52:04.120Z,67.05
2022-12-31T05:54:31.857Z,67.14
2022-12-31T05:56:59.802Z,67.08
2022-12-31T05:59:27.512Z,67.20
2022-12-31T06:01:55.578Z,66.96
2022-12-31T06:04:23.511Z,66.94
2022-12-31T06:06:51.255Z,66.86
2022-12-31T06:09:19.652Z,66.95
2022-12-31T06:11:47.628Z,67.08
2022-12-31T06:14:15.553Z,67.28
2022-12-31T06:16:43.359Z,67.36
2022-12-31T06:19:11.136Z,67.66
2022-12-31T06:21:39.038Z,67.92
2022-12-31T06:24:07.481Z,68.04
2022-12-31T06:26:35.394Z,68.37
2022-12-31T06:29:03.185Z,68.76
2022-12-31T06:31:30.978Z,68.79
2022-12-31T06:33:59.138Z,69.05
2022-12-31T06:36:27.184Z,69.08
2022-12-31T06:38:55.510Z,69.14
2022-12-31T06:41:23.263Z,69.43
2022-12-31T06:43:51.114Z,69.26
2022-12-31T06:46:19.010Z,69.87
2022-12-31T06:48:46.822Z,69.79
2022-12-31T06:51:20.549Z,70.06
2022-12-31T06:53:49.968Z,70.09
2022-12-31T06:56:33.072Z,70.07
2022-12-31T06:59:03.602Z,70.07
2022-12-31T07:01:40.376Z,70.10
2022-12-31T07:04:34.683Z,70.12
2022-12-31T07:07:26.823Z,70.08
2022-12-31T07:10:06.807Z,70.25
2022-12-31T07:12:40.416Z,70.52
2022-12-31T07:15:17.481Z,70.47
2022-12-31T07:18:04.836Z,70.60
2022-12-31T07:20:33.114Z,70.60
2022-12-31T07:23:01.651Z,70.60
2022-12-31T07:25:30.085Z,70.51
2022-12-31T07:28:15.997Z,70.60
2022-12-31T07:30:54.749Z,70.51
2022-12-31T07:33:39.023Z,70.21
2022-12-31T07:36:22.649Z,70.00
2022-12-31T07:38:55.284Z,69.69
2022-12-31T07:41:45.147Z,69.49
2022-12-31T07:44:51.192Z,69.28
2022-12-31T07:47:24.340Z,69.11
2022-12-31T07:49:53.716Z,68.89
2022-12-31T07:52:22.622Z,68.87
2022-12-31T07:54:50.517Z,68.83
2022-12-31T07:57:19.735Z,68.65
2022-12-31T07:59:56.607Z,68.60
2022-12-31T08:02:42.900Z,68.50
2022-12-31T08:05:35.830Z,68.41
2022-12-31T08:08:22.181Z,68.27
2022-12-31T08:11:05.091Z,68.13
2022-12-31T08:13:33.613Z,67.94
2022-12-31T08:16:02.843Z,67.82
2022-12-31T08:18:33.918Z,67.69
2022-12-31T08:21:35.254Z,67.49
2022-12-31T08:24:36.294Z,67.32
2022-12-31T08:27:12.853Z,67.13
2022-12-31T08:29:51.019Z,67.17
2022-12-31T08:32:33.703Z,67.12
2022-12-31T08:35:20.910Z,66.91
2022-12-31T08:38:06.292Z,66.74
2022-12-31T08:40:50.057Z,66.76
2022-12-31T08:43:40.412Z,66.69
2022-12-31T08:46:19.872Z,66.55
2022-12-31T08:48:48.618Z,66.30
2022-12-31T08:51:22.201Z,65.97
2022-12-31T08:53:50.941Z,65.65
2022-12-31T08:56:29.024Z,65.44
2022-12-31T08:59:28.008Z,65.36
2022-12-31T09:02:08.078Z,65.18
2022-12-31T09:05:02.475Z,65.02
2022-12-31T09:07:53.144Z,65.04
2022-12-31T09:10:35.227Z,64.97
2022-12-31T09:13:16.281Z,64.86
2022-12-31T09:15:49.493Z,64.77
2022-12-31T09:18:17.717Z,64.49
2022-12-31T09:20:45.672Z,64.32
2022-12-31T09:23:14.064Z,64.04
2022-12-31T09:25:49.680Z,63.93
2022-12-31T09:28:46.686Z,63.80
2022-12-31T09:31:33.863Z,63.65
2022-12-31T09:34:08.207Z,63.47
2022-12-31T09:36:43.798Z,63.20
2022-12-31T09:39:22.430Z,62.64
2022-12-31T09:42:23.731Z,62.40
2022-12-31T09:45:19.788Z,62.06
2022-12-31T09:47:47.489Z,61.90
2022-12-31T09:50:33.829Z,61.66
2022-12-31T09:53:19.167Z,61.60
2022-12-31T09:55:59.663Z,61.63
2022-12-31T09:58:57.468Z,61.73
2022-12-31T10:01:31.397Z,62.01
2022-12-31T10:04:08.455Z,62.08
2022-12-31T10:07:01.366Z,62.05
2022-12-31T10:09:42.943Z,62.44
2022-12-31T10:12:46.190Z,62.52
2022-12-31T10:15:34.119Z,62.62
2022-12-31T10:18:12.834Z,62.42
2022-12-31T10:21:00.291Z,62.39
2022-12-31T10:23:46.568Z,62.43
2022-12-31T10:26:31.435Z,62.45
2022-12-31T10:29:20.981Z,62.59
2022-12-31T10:32:03.762Z,62.75
2022-12-31T10:34:50.122Z,62.59
2022-12-31T10:37:29.970Z,62.49
2022-12-31T10:40:10.294Z,62.07
2022-12-31T10:43:15.917Z,61.65
2022-12-31T10:46:05.105Z,61.27
2022-12-31T10:49:08.352Z,61.03
2022-12-31T10:51:53.904Z,60.71
2022-12-31T10:54:24.539Z,60.47
2022-12-31T10:57:23.364Z,60.12
2022-12-31T11:00:00.523Z,60.08
2022-12-31T11:03:00.253Z,59.87
2022-12-31T11:05:47.015Z,59.70
2022-12-31T11:08:21.920Z,59.48
2022-12-31T11:11:26.653Z,59.11
2022-12-31T11:14:00.694Z,58.87
2022-12-31T11:16:37.684Z,59.04
2022-12-31T11:19:14.499Z,59.13
2022-12-31T11:21:59.132Z,59.05
2022-12-31T11:24:52.315Z,58.68
2022-12-31T11:27:46.116Z,58.43
2022-12-31T11:30:48.329Z,57.90
2022-12-31T11:33:46.818Z,57.43
2022-12-31T11:37:06.703Z,57.22
2022-12-31T11:39:52.112Z,56.78
2022-12-31T11:42:38.826Z,56.75
2022-12-31T11:45:31.632Z,56.51
2022-12-31T11:48:37.466Z,56.20
2022-12-31T11:51:24.235Z,55.77
2022-12-31T11:54:17.058Z,55.53
2022-12-31T11:56:50.591Z,55.57
2022-12-31T11:59:19.884Z,55.39
2022-12-31T12:01:56.125Z,55.29
2022-12-31T12:04:24.127Z,55.14
2022-12-31T12:06:52.526Z,55.05
2022-12-31T12:09:32.007Z,54.62
2022-12-31T12:12:04.809Z,54.68
2022-12-31T12:14:38.685Z,54.56
2022-12-31T12:17:14.967Z,54.22
2022-12-31T12:19:45.923Z,53.95
2022-12-31T12:22:21.336Z,53.86
2022-12-31T12:25:16.238Z,54.01
2022-12-31T12:27:44.094Z,53.87
2022-12-31T12:30:19.358Z,54.00
2022-12-31T12:32:55.394Z,54.12
2022-12-31T12:35:29.923Z,54.35
2022-12-31T12:38:15.016Z,54.03
2022-12-31T12:40:53.848Z,54.20
2022-12-31T12:43:27.163Z,53.87
2022-12-31T12:46:01.074Z,53.94
2022-12-31T12:48:42.546Z,54.27
2022-12-31T12:51:19.459Z,54.60
2022-12-31T12:54:18.593Z,55.03
2022-12-31T12:57:01.378Z,55.32
2022-12-31T12:59:47.394Z,55.50
2022-12-31T13:02:48.993Z,56.06
2022-12-31T13:05:28.218Z,56.70
2022-12-31T13:08:09.375Z,57.06
2022-12-31T13:10:58.083Z,57.50
2022-12-31T13:13:54.268Z,57.74
2022-12-31T13:16:59.894Z,58.17
2022-12-31T13:19:37.035Z,58.50
2022-12-31T13:22:27.168Z,58.83
2022-12-31T13:25:19.802Z,59.21
2022-12-31T13:27:50.502Z,59.28
2022-12-31T13:30:25.458Z,59.41
2022-12-31T13:32:58.520Z,59.55
2022-12-31T13:35:53.759Z,59.58
2022-12-31T13:38:31.932Z,59.65
2022-12-31T13:41:17.227Z,59.70
2022-12-31T13:43:58.471Z,59.71
2022-12-31T13:46:35.735Z,59.67
2022-12-31T13:49:10.674Z,59.75
2022-12-31T13:51:46.476Z,59.88
2022-12-31T13:54:42.614Z,60.01
2022-12-31T13:57:41.521Z,60.13
2022-12-31T14:00:19.792Z,60.47
2022-12-31T14:02:54.079Z,60.63
2022-12-31T14:05:37.805Z,60.92
2022-12-31T14:08:06.462Z,61.10
2022-12-31T14:10:42.670Z,61.50
2022-12-31T14:13:38.287Z,61.54
2022-12-31T14:16:18.643Z,61.61
2022-12-31T14:19:21.361Z,61.86
2022-12-31T14:22:03.381Z,62.13
2022-12-31T14:24:42.313Z,62.24
2022-12-31T14:27:36.985Z,62.40
2022-12-31T14:30:07.433Z,62.58
2022-12-31T14:33:06.454Z,62.76
2022-12-31T14:35:56.677Z,62.98
2022-12-31T14:38:51.077Z,63.09
2022-12-31T14:41:40.503Z,63.32
2022-12-31T14:44:27.850Z,63.26
2022-12-31T14:47:37.095Z,63.39
2022-12-31T14:50:27.361Z,63.38
2022-12-31T14:53:04.493Z,63.67
2022-12-31T14:55:37.326Z,63.63
2022-12-31T14:58:28.205Z,63.79
2022-12-31T15:00:59.696Z,63.75
2022-12-31T15:03:30.901Z,64.04
2022-12-31T15:06:13.829Z,64.01
2022-12-31T15:08:49.516Z,64.12
2022-12-31T15:11:23.822Z,64.24
2022-12-31T15:14:13.223Z,64.34
2022-12-31T15:16:44.945Z,64.18
2022-12-31T15:19:18.952Z,64.34
2022-12-31T15:22:10.263Z,64.45
2022-12-31T15:24:43.997Z,64.42
2022-12-31T15:27:38.635Z,64.36
2022-12-31T15:30:07.367Z,64.38
2022-12-31T15:32:37.344Z,64.34
2022-12-31T15:35:45.738Z,64.49
2022-12-31T15:38:13.458Z,64.41
2022-12-31T15:40:49.583Z,64.50
2022-12-31T15:43:31.400Z,64.61
2022-12-31T15:45:59.782Z,64.65
2022-12-31T15:48:40.766Z,64.69
2022-12-31T15:51:20.221Z,64.66
2022-12-31T15:53:53.081Z,64.63
2022-12-31T15:56:38.329Z,64.60
2022-12-31T15:59:12.150Z,64.87
2022-12-31T16:01:41.781Z,64.85
2022-12-31T16:04:27.893Z,64.85
2022-12-31T16:07:00.567Z,64.89
2022-12-31T16:09:34.238Z,64.99
2022-12-31T16:12:04.936Z,65.05
2022-12-31T16:14:36.927Z,65.05
2022-12-31T16:17:05.232Z,65.03
2022-12-31T16:19:42.725Z,65.07
2022-12-31T16:22:16.211Z,65.12
2022-12-31T16:25:10.767Z,65.14
2022-12-31T16:27:34.723Z,65.11
2022-12-31T16:30:07.178Z,65.13
2022-12-31T16:32:38.248Z,64.94
2022-12-31T16:35:28.110Z,65.03
2022-12-31T16:38:17.400Z,64.94
2022-12-31T16:41:06.604Z,64.82
2022-12-31T16:43:41.057Z,64.75
2022-12-31T16:46:20.161Z,64.78
2022-12-31T16:48:50.819Z,64.73
2022-12-31T16:51:21.831Z,64.76
2022-12-31T16:53:50.313Z,64.80
2022-12-31T16:56:38.405Z,64.86
2022-12-31T16:59:25.378Z,64.86
2022-12-31T17:01:56.183Z,64.89
2022-12-31T17:04:24.495Z,64.82
2022-12-31T17:06:52.421Z,64.89
2022-12-31T17:09:33.743Z,64.93
2022-12-31T17:12:52.666Z,64.87
2022-12-31T17:15:29.830Z,64.86
2022-12-31T17:18:01.541Z,64.81
2022-12-31T17:20:31.436Z,64.84
2022-12-31T17:23:01.402Z,64.80
2022-12-31T17:25:34.478Z,64.84
2022-12-31T17:28:05.395Z,65.13
2022-12-31T17:30:33.298Z,65.04
2022-12-31T17:33:24.061Z,65.10
2022-12-31T17:35:56.895Z,65.25
2022-12-31T17:38:24.576Z,65.48
2022-12-31T17:40:54.045Z,65.60
2022-12-31T17:43:23.239Z,65.58
2022-12-31T17:45:51.830Z,65.70
2022-12-31T17:48:23.262Z,65.64
2022-12-31T17:50:56.556Z,65.74
2022-12-31T17:53:24.921Z,65.95
2022-12-31T17:55:54.856Z,65.97
2022-12-31T17:58:29.850Z,65.97
2022-12-31T18:00:58.223Z,66.29
2022-12-31T18:03:26.484Z,66.25
2022-12-31T18:05:54.344Z,66.26
2022-12-31T18:08:22.079Z,66.24
2022-12-31T18:10:50.968Z,66.32
2022-12-31T18:13:26.247Z,66.35
2022-12-31T18:15:54.684Z,66.32
2022-12-31T18:18:25.933Z,66.43
2022-12-31T18:20:58.063Z,66.31
2022-12-31T18:23:31.738Z,66.52
2022-12-31T18:25:59.493Z,66.24
2022-12-31T18:28:27.353Z,66.25
2022-12-31T18:30:55.926Z,66.09
2022-12-31T18:33:25.709Z,66.09
2022-12-31T18:36:10.222Z,66.07
2022-12-31T18:38:39.552Z,65.99
2022-12-31T18:41:07.818Z,65.94
2022-12-31T18:43:35.551Z,66.03
2022-12-31T18:46:03.494Z,65.86
2022-12-31T18:48:31.655Z,65.82
2022-12-31T18:50:59.673Z,65.78
2022-12-31T18:53:27.558Z,65.57
2022-12-31T18:55:57.190Z,65.58
2022-12-31T18:58:25.234Z,65.47
2022-12-31T19:00:53.047Z,65.35
2022-12-31T19:03:23.135Z,65.34
2022-12-31T19:05:52.152Z,65.29
2022-12-31T19:08:22.380Z,65.17
2022-12-31T19:10:51.926Z,65.06
2022-12-31T19:13:20.670Z,64.83
2022-12-31T19:15:50.795Z,64.76
2022-12-31T19:18:19.344Z,64.65
2022-12-31T19:20:47.760Z,64.65
2022-12-31T19:23:18.198Z,64.53
2022-12-31T19:25:47.725Z,64.40
2022-12-31T19:28:20.081Z,64.27
2022-12-31T19:30:47.901Z,64.30
2022-12-31T19:33:16.364Z,64.14
2022-12-31T19:35:45.109Z,64.09
2022-12-31T19:38:22.189Z,64.08
2022-12-31T19:40:51.900Z,63.84
2022-12-31T19:43:21.639Z,63.85
2022-12-31T19:45:50.528Z,63.71
2022-12-31T19:48:20.607Z,63.66
2022-12-31T19:50:51.127Z,63.48
2022-12-31T19:53:27.516Z,63.33
2022-12-31T19:55:55.317Z,63.16
2022-12-31T19:58:27.876Z,63.10
2022-12-31T20:01:02.425Z,62.79
2022-12-31T20:03:32.832Z,62.83
2022-12-31T20:06:03.380Z,62.65
2022-12-31T20:08:31.741Z,62.63
2022-12-31T20:11:11.194Z,62.73
2022-12-31T20:13:40.337Z,62.69
2022-12-31T20:16:13.697Z,62.54
2022-12-31T20:18:42.393Z,62.56
2022-12-31T20:21:12.424Z,62.61
2022-12-31T20:23:40.498Z,62.45
2022-12-31T20:26:08.886Z,62.52
2022-12-31T20:28:37.477Z,62.48
2022-12-31T20:31:10.811Z,62.47
2022-12-31T20:33:38.998Z,62.42
2022-12-31T20:36:09.182Z,62.35
2022-12-31T20:38:37.225Z,62.28
2022-12-31T20:41:12.798Z,62.37
2022-12-31T20:43:41.280Z,62.31
2022-12-31T20:46:16.087Z,62.19
2022-12-31T20:48:45.222Z,62.24
2022-12-31T20:51:14.745Z,62.22
2022-12-31T20:53:50.616Z,62.18
2022-12-31T20:56:18.697Z,62.24
2022-12-31T20:58:47.100Z,62.05
2022-12-31T21:01:16.844Z,62.04
2022-12-31T21:06:35.433Z,62.05
2022-12-31T21:09:05.715Z,61.98
2022-12-31T21:11:52.990Z,61.97
2022-12-31T21:14:21.413Z,61.88
2022-12-31T21:16:49.203Z,61.81
2022-12-31T21:19:17.150Z,61.86
2022-12-31T21:21:44.988Z,61.86
2022-12-31T21:24:12.709Z,61.82
2022-12-31T21:26:40.454Z,61.89
2022-12-31T21:29:08.391Z,61.77
2022-12-31T21:31:36.481Z,61.77
2022-12-31T21:34:04.335Z,61.69
2022-12-31T21:36:32.039Z,61.57
2022-12-31T21:38:59.820Z,61.57
2022-12-31T21:41:46.282Z,61.63
2022-12-31T21:44:14.129Z,61.53
2022-12-31T21:47:00.747Z,61.54
2022-12-31T21:49:29.494Z,61.49
2022-12-31T21:52:16.024Z,61.58
2022-12-31T21:55:02.658Z,61.46
2022-12-31T21:57:34.296Z,61.48
2022-12-31T22:00:42.514Z,61.37
2022-12-31T22:03:24.314Z,61.41
2022-12-31T22:06:00.763Z,61.36
2022-12-31T22:08:30.227Z,61.32
2022-12-31T22:10:58.087Z,61.08
2022-12-31T22:13:26.002Z,61.09
2022-12-31T22:16:00.406Z,60.96
2022-12-31T22:18:34.458Z,60.87
2022-12-31T22:21:05.880Z,60.92
2022-12-31T22:23:35.171Z,60.86
2022-12-31T22:26:04.489Z,60.81
2022-12-31T22:28:40.422Z,60.72
2022-12-31T22:31:19.930Z,60.60
2022-12-31T22:33:47.817Z,60.53
2022-12-31T22:36:18.715Z,60.55
2022-12-31T22:38:47.103Z,60.41
2022-12-31T22:41:18.246Z,60.48
2022-12-31T22:43:48.668Z,60.29
2022-12-31T22:46:18.989Z,60.29
2022-12-31T22:48:47.514Z,60.22
2022-12-31T22:51:15.977Z,60.10
2022-12-31T22:53:43.943Z,59.95
2022-12-31T22:56:13.883Z,59.99
2022-12-31T22:58:41.795Z,59.94
2022-12-31T23:01:22.012Z,59.83
2022-12-31T23:03:51.808Z,59.63
2022-12-31T23:06:22.072Z,59.53
2022-12-31T23:09:09.528Z,59.24
2022-12-31T23:11:38.643Z,59.02
2022-12-31T23:14:26.260Z,58.94
2022-12-31T23:17:30.854Z,58.91
2022-12-31T23:20:19.152Z,58.78
2022-12-31T23:23:06.123Z,58.80
2022-12-31T23:25:39.623Z,58.70
2022-12-31T23:28:11.451Z,58.83
2022-12-31T23:30:40.643Z,58.52
2022-12-31T23:33:15.621Z,58.63
2022-12-31T23:35:45.380Z,58.55
2022-12-31T23:38:14.760Z,58.46
2022-12-31T23:40:43.330Z,58.48
2022-12-31T23:43:19.852Z,58.38
2022-12-31T23:45:50.019Z,58.46
2022-12-31T23:48:17.818Z,58.28
2022-12-31T23:50:52.987Z,58.15
2022-12-31T23:53:23.123Z,58.08
2022-12-31T23:55:52.141Z,57.81
2022-12-31T23:58:21.109Z,57.75
